createdAt,value
2022-10-11T00:01:34.426Z,12.80
2022-10-11T00:04:01.286Z,12.70
2022-10-11T00:06:27.750Z,12.60
2022-10-11T00:08:54.196Z,12.60
2022-10-11T00:11:20.642Z,12.50
2022-10-11T00:13:47.118Z,12.50
2022-10-11T00:16:15.177Z,12.40
2022-10-11T00:18:42.351Z,12.40
2022-10-11T00:21:10.176Z,12.40
2022-10-11T00:23:36.639Z,12.30
2022-10-11T00:26:05.532Z,12.30
2022-10-11T00:28:32.713Z,12.30
2022-10-11T00:30:59.211Z,12.30
2022-10-11T00:33:25.765Z,12.20
2022-10-11T00:35:52.175Z,12.20
2022-10-11T00:38:18.593Z,12.30
2022-10-11T00:40:45.172Z,12.30
2022-10-11T00:43:15.959Z,12.40
2022-10-11T00:45:45.260Z,12.30
2022-10-11T00:48:14.654Z,12.30
2022-10-11T00:50:41.583Z,12.20
2022-10-11T00:53:11.295Z,12.20
2022-10-11T00:55:40.456Z,12.20
2022-10-11T00:58:07.450Z,12.10
2022-10-11T01:00:33.905Z,12.10
2022-10-11T01:03:00.511Z,12.10
2022-10-11T01:05:29.725Z,12.00
2022-10-11T01:07:58.444Z,12.00
2022-10-11T01:10:34.335Z,11.90
2022-10-11T01:13:19.605Z,11.90
2022-10-11T01:15:50.240Z,11.90
2022-10-11T01:18:21.446Z,11.80
2022-10-11T01:21:01.580Z,11.80
2022-10-11T01:23:49.659Z,11.70
2022-10-11T01:26:31.509Z,11.70
2022-10-11T01:29:20.927Z,11.60
2022-10-11T01:31:50.661Z,11.60
2022-10-11T01:34:24.308Z,11.60
2022-10-11T01:36:58.813Z,11.50
2022-10-11T01:39:38.327Z,11.50
2022-10-11T01:42:06.226Z,11.50
2022-10-11T01:44:34.360Z,11.40
2022-10-11T01:47:00.788Z,11.40
2022-10-11T01:49:27.239Z,11.30
2022-10-11T01:51:54.843Z,11.30
2022-10-11T01:55:03.930Z,11.30
2022-10-11T01:57:33.590Z,11.30
2022-10-11T02:00:12.557Z,11.20
2022-10-11T02:03:01.985Z,11.10
2022-10-11T02:05:41.495Z,11.10
2022-10-11T02:08:26.971Z,11.00
2022-10-11T02:11:01.520Z,10.90
2022-10-11T02:13:28.039Z,10.80
2022-10-11T02:15:55.936Z,10.80
2022-10-11T02:18:24.594Z,10.70
2022-10-11T02:20:51.729Z,10.70
2022-10-11T02:23:25.677Z,10.60
2022-10-11T02:25:52.389Z,10.50
2022-10-11T02:28:22.393Z,10.50
2022-10-11T02:30:49.643Z,10.50
2022-10-11T02:33:18.387Z,10.40
2022-10-11T02:35:47.000Z,10.40
2022-10-11T02:38:27.658Z,10.30
2022-10-11T02:41:01.024Z,10.30
2022-10-11T02:43:36.064Z,10.30
2022-10-11T02:46:03.311Z,10.20
2022-10-11T02:48:31.907Z,10.30
2022-10-11T02:50:58.521Z,10.20
2022-10-11T02:53:25.670Z,10.20
2022-10-11T02:55:59.589Z,10.20
2022-10-11T02:58:26.225Z,10.10
2022-10-11T03:00:53.069Z,10.10
2022-10-11T03:03:23.343Z,10.00
2022-10-11T03:05:49.936Z,10.00
2022-10-11T03:08:17.329Z,10.00
2022-10-11T03:10:45.056Z,9.90
2022-10-11T03:13:18.163Z,9.90
2022-10-11T03:15:49.435Z,9.90
2022-10-11T03:18:22.692Z,9.80
2022-10-11T03:20:50.098Z,9.80
2022-10-11T03:23:17.148Z,9.70
2022-10-11T03:25:48.059Z,9.70
2022-10-11T03:28:14.690Z,9.70
2022-10-11T03:30:41.720Z,9.60
2022-10-11T03:33:09.026Z,9.60
2022-10-11T03:35:36.195Z,9.50
2022-10-11T03:38:08.229Z,9.50
2022-10-11T03:40:37.147Z,9.50
2022-10-11T03:43:11.980Z,9.50
2022-10-11T03:45:42.969Z,9.40
2022-10-11T03:48:10.245Z,9.40
2022-10-11T03:50:37.754Z,9.40
2022-10-11T03:53:09.067Z,9.40
2022-10-11T03:55:38.155Z,9.30
2022-10-11T03:58:11.314Z,9.30
2022-10-11T04:00:42.478Z,9.20
2022-10-11T04:03:08.944Z,9.20
2022-10-11T04:05:35.436Z,9.10
2022-10-11T04:08:01.912Z,9.10
2022-10-11T04:10:28.419Z,9.10
2022-10-11T04:12:54.835Z,9.10
2022-10-11T04:15:21.335Z,9.00
2022-10-11T04:17:47.798Z,8.90
2022-10-11T04:20:14.346Z,8.90
2022-10-11T04:22:40.799Z,8.90
2022-10-11T04:25:07.745Z,8.80
2022-10-11T04:27:34.587Z,8.80
2022-10-11T04:30:01.218Z,8.70
2022-10-11T04:32:27.700Z,8.70
2022-10-11T04:34:54.121Z,8.60
2022-10-11T04:37:20.611Z,8.60
2022-10-11T04:39:47.087Z,8.60
2022-10-11T04:42:13.531Z,8.60
2022-10-11T04:44:40.005Z,8.50
2022-10-11T04:47:06.466Z,8.50
2022-10-11T04:49:32.864Z,8.60
2022-10-11T04:51:59.310Z,8.60
2022-10-11T04:54:25.792Z,8.60
2022-10-11T04:56:52.243Z,8.60
2022-10-11T04:59:18.685Z,8.60
2022-10-11T05:01:45.190Z,8.70
2022-10-11T05:04:11.702Z,8.70
2022-10-11T05:06:38.127Z,8.80
2022-10-11T05:09:04.612Z,8.80
2022-10-11T05:11:31.062Z,8.80
2022-10-11T05:13:57.536Z,8.90
2022-10-11T05:16:24.168Z,8.80
2022-10-11T05:18:50.759Z,8.80
2022-10-11T05:21:19.491Z,8.80
2022-10-11T05:23:46.911Z,8.80
2022-10-11T05:26:13.646Z,8.80
2022-10-11T05:28:40.164Z,8.70
2022-10-11T05:31:06.657Z,8.70
2022-10-11T05:33:33.093Z,8.60
2022-10-11T05:36:00.368Z,8.60
2022-10-11T05:38:27.209Z,8.50
2022-10-11T05:40:54.329Z,8.40
2022-10-11T05:43:20.781Z,8.30
2022-10-11T05:45:47.293Z,8.30
2022-10-11T05:48:13.724Z,8.20
2022-10-11T05:50:40.180Z,8.20
2022-10-11T05:53:06.743Z,8.10
2022-10-11T05:55:40.655Z,8.00
2022-10-11T05:58:07.648Z,8.00
2022-10-11T06:00:37.896Z,7.90
2022-10-11T06:03:05.509Z,7.90
2022-10-11T06:05:31.950Z,8.00
2022-10-11T06:07:58.810Z,8.10
2022-10-11T06:10:25.476Z,8.10
2022-10-11T06:12:51.944Z,8.30
2022-10-11T06:15:18.560Z,8.40
2022-10-11T06:17:46.149Z,8.60
2022-10-11T06:20:12.781Z,8.70
2022-10-11T06:22:39.243Z,8.90
2022-10-11T06:25:06.132Z,9.10
2022-10-11T06:27:32.612Z,9.70
2022-10-11T06:29:59.109Z,10.80
2022-10-11T06:32:25.593Z,12.00
2022-10-11T06:34:52.012Z,12.40
2022-10-11T06:37:18.574Z,12.30
2022-10-11T06:39:45.105Z,12.20
2022-10-11T06:42:11.584Z,12.40
2022-10-11T06:44:38.684Z,13.00
2022-10-11T06:47:05.690Z,13.70
2022-10-11T06:49:32.188Z,14.10
2022-10-11T06:52:00.764Z,14.50
2022-10-11T06:54:27.239Z,15.20
2022-10-11T06:56:53.654Z,15.90
2022-10-11T06:59:20.136Z,17.70
2022-10-11T07:01:46.581Z,19.70
2022-10-11T07:04:12.993Z,21.50
2022-10-11T07:06:40.065Z,22.90
2022-10-11T07:09:07.096Z,23.70
2022-10-11T07:11:33.785Z,24.70
2022-10-11T07:14:02.338Z,25.50
2022-10-11T07:16:28.895Z,26.20
2022-10-11T07:19:00.458Z,26.50
2022-10-11T07:21:27.947Z,25.50
2022-10-11T07:23:54.398Z,24.00
2022-10-11T07:26:21.038Z,22.60
2022-10-11T07:28:47.562Z,21.50
2022-10-11T07:31:15.856Z,20.80
2022-10-11T07:33:42.349Z,20.40
2022-10-11T07:36:09.632Z,21.00
2022-10-11T07:38:38.477Z,23.40
2022-10-11T07:41:05.911Z,25.80
2022-10-11T07:43:32.391Z,27.20
2022-10-11T07:46:04.203Z,28.20
2022-10-11T07:48:31.751Z,29.00
2022-10-11T07:51:02.439Z,29.80
2022-10-11T07:53:29.094Z,30.70
2022-10-11T07:55:59.009Z,31.10
2022-10-11T07:58:25.609Z,31.40
2022-10-11T08:00:52.991Z,31.70
2022-10-11T08:03:19.405Z,31.90
2022-10-11T08:05:45.895Z,32.00
2022-10-11T08:08:12.449Z,32.60
2022-10-11T08:10:40.031Z,32.40
2022-10-11T08:13:06.567Z,32.70
2022-10-11T08:15:33.088Z,32.60
2022-10-11T08:17:59.701Z,33.00
2022-10-11T08:20:26.252Z,33.40
2022-10-11T08:22:52.707Z,33.70
2022-10-11T08:25:19.176Z,34.30
2022-10-11T08:27:45.616Z,33.60
2022-10-11T08:30:12.587Z,33.50
2022-10-11T08:32:39.003Z,33.90
2022-10-11T08:35:06.105Z,34.60
2022-10-11T08:37:32.728Z,34.90
2022-10-11T08:39:59.267Z,35.10
2022-10-11T08:42:32.372Z,34.30
2022-10-11T08:45:16.201Z,34.50
2022-10-11T08:47:43.970Z,34.90
2022-10-11T08:50:16.642Z,34.90
2022-10-11T08:53:03.425Z,34.90
2022-10-11T08:55:32.951Z,35.10
2022-10-11T08:57:59.457Z,35.70
2022-10-11T09:00:28.556Z,35.80
2022-10-11T09:03:10.243Z,35.30
2022-10-11T09:05:49.911Z,35.20
2022-10-11T09:08:22.257Z,35.50
2022-10-11T09:10:57.095Z,35.30
2022-10-11T09:13:43.513Z,35.20
2022-10-11T09:16:21.706Z,35.20
2022-10-11T09:19:15.240Z,35.40
2022-10-11T09:21:46.973Z,35.40
2022-10-11T09:24:19.384Z,35.40
2022-10-11T09:26:51.790Z,34.80
2022-10-11T09:29:33.664Z,34.50
2022-10-11T09:32:00.596Z,34.60
2022-10-11T09:34:32.207Z,34.10
2022-10-11T09:37:11.281Z,34.30
2022-10-11T09:39:41.470Z,34.60
2022-10-11T09:42:09.127Z,34.80
2022-10-11T09:44:37.271Z,35.00
2022-10-11T09:47:04.613Z,35.30
2022-10-11T09:49:33.252Z,35.80
2022-10-11T09:52:00.717Z,36.40
2022-10-11T09:54:49.944Z,35.80
2022-10-11T09:57:20.923Z,35.80
2022-10-11T10:00:02.517Z,35.80
2022-10-11T10:02:30.233Z,36.30
2022-10-11T10:04:56.719Z,36.80
2022-10-11T10:07:23.800Z,36.80
2022-10-11T10:09:50.665Z,36.50
2022-10-11T10:12:22.274Z,37.00
2022-10-11T10:15:08.306Z,37.40
2022-10-11T10:17:35.587Z,37.10
2022-10-11T10:20:05.283Z,36.40
2022-10-11T10:22:32.604Z,36.10
2022-10-11T10:25:01.305Z,36.00
2022-10-11T10:27:29.462Z,36.30
2022-10-11T10:30:08.074Z,36.50
2022-10-11T10:32:37.943Z,36.50
2022-10-11T10:35:18.545Z,36.50
2022-10-11T10:37:57.067Z,36.60
2022-10-11T10:40:26.296Z,36.40
2022-10-11T10:42:52.736Z,36.10
2022-10-11T10:45:22.087Z,35.70
2022-10-11T10:48:07.009Z,35.60
2022-10-11T10:50:47.412Z,35.40
2022-10-11T10:53:23.910Z,35.10
2022-10-11T10:55:57.362Z,34.90
2022-10-11T10:58:42.522Z,34.90
2022-10-11T11:01:13.644Z,34.60
2022-10-11T11:03:40.123Z,34.40
2022-10-11T11:06:08.220Z,34.00
2022-10-11T11:08:47.027Z,34.00
2022-10-11T11:11:33.375Z,33.90
2022-10-11T11:14:18.614Z,33.90
2022-10-11T11:16:49.984Z,33.40
2022-10-11T11:19:16.401Z,32.60
2022-10-11T11:21:45.983Z,32.10
2022-10-11T11:24:21.983Z,32.30
2022-10-11T11:26:53.850Z,32.60
2022-10-11T11:29:31.569Z,32.70
2022-10-11T11:32:21.126Z,33.10
2022-10-11T11:34:58.652Z,33.20
2022-10-11T11:37:28.165Z,33.10
2022-10-11T11:39:56.990Z,32.90
2022-10-11T11:42:23.400Z,32.60
2022-10-11T11:44:51.002Z,32.00
2022-10-11T11:47:26.110Z,30.90
2022-10-11T11:49:58.744Z,29.30
2022-10-11T11:52:27.932Z,28.10
2022-10-11T11:55:17.439Z,26.80
2022-10-11T11:57:51.961Z,25.70
2022-10-11T12:00:23.144Z,25.10
2022-10-11T12:02:49.562Z,24.60
2022-10-11T12:05:17.699Z,24.30
2022-10-11T12:07:52.868Z,24.00
2022-10-11T12:10:25.187Z,23.60
2022-10-11T12:13:02.104Z,23.40
2022-10-11T12:15:28.579Z,23.00
2022-10-11T12:17:58.001Z,22.70
2022-10-11T12:20:25.716Z,22.50
2022-10-11T12:23:02.192Z,22.40
2022-10-11T12:25:28.629Z,22.30
2022-10-11T12:27:56.299Z,22.10
2022-10-11T12:30:41.740Z,21.90
2022-10-11T12:33:16.332Z,21.70
2022-10-11T12:35:55.320Z,21.50
2022-10-11T12:38:37.128Z,21.30
2022-10-11T12:41:09.483Z,21.20
2022-10-11T12:43:55.879Z,21.20
2022-10-11T12:46:28.183Z,21.10
2022-10-11T12:48:54.604Z,21.00
2022-10-11T12:51:34.272Z,20.90
2022-10-11T12:54:26.698Z,20.70
2022-10-11T12:57:15.896Z,20.70
2022-10-11T12:59:45.614Z,20.60
2022-10-11T13:02:39.133Z,20.50
2022-10-11T13:05:16.487Z,20.40
2022-10-11T13:07:43.200Z,20.30
2022-10-11T13:10:14.026Z,20.20
2022-10-11T13:12:41.793Z,20.10
2022-10-11T13:15:12.951Z,20.10
2022-10-11T13:17:40.020Z,20.00
2022-10-11T13:20:15.549Z,20.10
2022-10-11T13:22:41.995Z,20.10
2022-10-11T13:25:08.897Z,20.10
2022-10-11T13:27:36.775Z,20.10
2022-10-11T13:30:05.553Z,20.10
2022-10-11T13:32:32.324Z,20.00
2022-10-11T13:35:01.824Z,19.80
2022-10-11T13:37:28.834Z,19.70
2022-10-11T13:39:56.163Z,19.60
2022-10-11T13:42:30.463Z,19.40
2022-10-11T13:44:57.345Z,19.40
2022-10-11T13:47:29.177Z,19.40
2022-10-11T13:50:14.229Z,19.50
2022-10-11T13:52:52.569Z,19.40
2022-10-11T13:55:23.301Z,19.30
2022-10-11T13:57:52.103Z,19.30
2022-10-11T14:00:28.627Z,19.40
2022-10-11T14:02:55.897Z,19.40
2022-10-11T14:05:29.484Z,19.40
2022-10-11T14:07:57.102Z,19.40
2022-10-11T14:10:23.628Z,19.30
2022-10-11T14:13:07.143Z,19.20
2022-10-11T14:15:37.840Z,19.10
2022-10-11T14:18:23.355Z,18.90
2022-10-11T14:20:49.787Z,18.70
2022-10-11T14:23:16.262Z,18.50
2022-10-11T14:25:42.701Z,18.40
2022-10-11T14:28:11.131Z,18.30
2022-10-11T14:30:40.458Z,18.20
2022-10-11T14:33:06.888Z,18.20
2022-10-11T14:35:34.350Z,18.10
2022-10-11T14:38:00.816Z,18.00
2022-10-11T14:40:28.673Z,17.90
2022-10-11T14:42:55.211Z,17.80
2022-10-11T14:45:21.708Z,17.80
2022-10-11T14:47:48.674Z,17.80
2022-10-11T14:50:26.926Z,17.80
2022-10-11T14:52:53.813Z,17.70
2022-10-11T14:55:20.344Z,17.50
2022-10-11T14:57:47.067Z,17.40
2022-10-11T15:00:20.105Z,17.40
2022-10-11T15:02:46.750Z,17.30
2022-10-11T15:05:13.290Z,17.20
2022-10-11T15:07:39.763Z,17.20
2022-10-11T15:10:14.643Z,17.10
2022-10-11T15:12:41.307Z,17.00
2022-10-11T15:15:07.891Z,17.00
2022-10-11T15:17:34.350Z,16.90
2022-10-11T15:20:00.827Z,16.80
2022-10-11T15:22:27.328Z,16.60
2022-10-11T15:24:53.821Z,16.60
2022-10-11T15:27:20.442Z,16.50
2022-10-11T15:29:47.064Z,16.40
2022-10-11T15:32:13.537Z,16.30
2022-10-11T15:34:39.994Z,16.20
2022-10-11T15:37:06.473Z,16.10
2022-10-11T15:39:33.673Z,16.00
2022-10-11T15:42:00.175Z,16.00
2022-10-11T15:44:26.747Z,15.90
2022-10-11T15:46:53.248Z,15.80
2022-10-11T15:49:19.860Z,15.80
2022-10-11T15:51:46.351Z,15.70
2022-10-11T15:54:12.770Z,15.60
2022-10-11T15:56:39.736Z,15.50
2022-10-11T15:59:06.161Z,15.40
2022-10-11T16:01:33.059Z,15.30
2022-10-11T16:03:59.543Z,15.30
2022-10-11T16:06:27.458Z,15.10
2022-10-11T16:08:53.944Z,15.00
2022-10-11T16:11:20.522Z,14.90
2022-10-11T16:13:48.183Z,14.80
2022-10-11T16:16:14.854Z,14.70
2022-10-11T16:18:41.332Z,14.60
2022-10-11T16:21:09.626Z,14.50
2022-10-11T16:23:36.803Z,14.40
2022-10-11T16:26:05.149Z,14.30
2022-10-11T16:28:32.179Z,14.10
2022-10-11T16:30:58.890Z,14.00
2022-10-11T16:33:25.432Z,13.90
2022-10-11T16:35:51.928Z,13.80
2022-10-11T16:38:18.428Z,13.70
2022-10-11T16:40:44.914Z,13.50
2022-10-11T16:43:11.433Z,13.40
2022-10-11T16:45:37.944Z,13.20
2022-10-11T16:48:04.921Z,13.20
2022-10-11T16:50:34.463Z,13.10
2022-10-11T16:53:04.967Z,13.00
2022-10-11T16:55:31.437Z,12.80
2022-10-11T16:57:57.856Z,12.70
2022-10-11T17:00:24.355Z,12.60
2022-10-11T17:02:50.826Z,12.50
2022-10-11T17:05:17.319Z,12.50
2022-10-11T17:07:43.800Z,12.30
2022-10-11T17:10:10.239Z,12.20
2022-10-11T17:12:38.485Z,12.20
2022-10-11T17:15:05.300Z,12.10
2022-10-11T17:17:31.890Z,12.00
2022-10-11T17:19:58.520Z,11.90
2022-10-11T17:22:25.482Z,11.80
2022-10-11T17:24:51.935Z,11.80
2022-10-11T17:27:18.411Z,11.70
2022-10-11T17:29:44.918Z,11.70
2022-10-11T17:32:11.422Z,11.60
2022-10-11T17:34:37.852Z,11.60
2022-10-11T17:37:04.506Z,11.50
2022-10-11T17:39:30.996Z,11.40
2022-10-11T17:41:57.552Z,11.40
2022-10-11T17:44:24.074Z,11.30
2022-10-11T17:46:50.556Z,11.20
2022-10-11T17:49:17.028Z,11.20
2022-10-11T17:51:44.171Z,11.10
2022-10-11T17:54:16.609Z,11.00
2022-10-11T17:56:43.423Z,11.00
2022-10-11T17:59:19.641Z,10.90
2022-10-11T18:01:49.845Z,10.90
2022-10-11T18:04:17.156Z,10.90
2022-10-11T18:06:45.186Z,10.90
2022-10-11T18:09:12.974Z,10.80
2022-10-11T18:11:39.896Z,10.80
2022-10-11T18:14:06.827Z,10.70
2022-10-11T18:16:34.243Z,10.60
2022-10-11T18:19:02.968Z,10.60
2022-10-11T18:21:34.390Z,10.50
2022-10-11T18:24:02.767Z,10.40
2022-10-11T18:26:30.980Z,10.30
2022-10-11T18:28:58.836Z,10.20
2022-10-11T18:31:27.565Z,10.20
2022-10-11T18:33:57.401Z,10.10
2022-10-11T18:36:26.836Z,10.10
2022-10-11T18:38:55.483Z,10.00
2022-10-11T18:41:23.215Z,9.90
2022-10-11T18:43:53.652Z,9.90
2022-10-11T18:46:20.536Z,9.80
2022-10-11T18:48:48.120Z,9.80
2022-10-11T18:51:16.346Z,9.80
2022-10-11T18:53:42.785Z,9.70
2022-10-11T18:56:10.391Z,9.70
2022-10-11T18:58:37.496Z,9.60
2022-10-11T19:01:07.925Z,9.60
2022-10-11T19:03:35.404Z,9.50
2022-10-11T19:06:03.365Z,9.50
2022-10-11T19:08:29.945Z,9.40
2022-10-11T19:10:56.474Z,9.40
2022-10-11T19:13:23.039Z,9.30
2022-10-11T19:15:49.460Z,9.30
2022-10-11T19:18:20.234Z,9.30
2022-10-11T19:20:47.020Z,9.20
2022-10-11T19:23:13.476Z,9.20
2022-10-11T19:25:39.935Z,9.20
2022-10-11T19:28:06.408Z,9.10
2022-10-11T19:30:33.178Z,9.00
2022-10-11T19:33:00.631Z,9.00
2022-10-11T19:35:27.385Z,9.00
2022-10-11T19:37:53.825Z,9.00
2022-10-11T19:40:20.398Z,9.00
2022-10-11T19:42:46.887Z,8.90
2022-10-11T19:45:13.302Z,8.90
2022-10-11T19:47:39.827Z,8.90
2022-10-11T19:50:06.611Z,8.90
2022-10-11T19:52:33.450Z,8.80
2022-10-11T19:55:00.159Z,8.80
2022-10-11T19:57:26.577Z,8.80
2022-10-11T19:59:53.027Z,8.80
2022-10-11T20:02:19.660Z,8.80
2022-10-11T20:04:53.460Z,8.70
2022-10-11T20:07:19.943Z,8.70
2022-10-11T20:09:46.364Z,8.70
2022-10-11T20:12:12.845Z,8.60
2022-10-11T20:14:39.296Z,8.60
2022-10-11T20:17:05.746Z,8.60
2022-10-11T20:19:32.256Z,8.60
2022-10-11T20:21:59.224Z,8.50
2022-10-11T20:24:28.733Z,8.50
2022-10-11T20:26:55.246Z,8.50
2022-10-11T20:29:22.967Z,8.50
2022-10-11T20:31:49.427Z,8.40
2022-10-11T20:34:15.919Z,8.40
2022-10-11T20:36:46.863Z,8.40
2022-10-11T20:39:15.769Z,8.40
2022-10-11T20:41:42.786Z,8.30
2022-10-11T20:44:09.655Z,8.30
2022-10-11T20:46:37.848Z,8.30
2022-10-11T20:49:08.666Z,8.30
2022-10-11T20:51:36.091Z,8.30
2022-10-11T20:54:03.998Z,8.20
2022-10-11T20:56:30.935Z,8.20
2022-10-11T20:58:57.827Z,8.20
2022-10-11T21:01:26.311Z,8.20
2022-10-11T21:03:53.063Z,8.10
2022-10-11T21:06:19.561Z,8.10
2022-10-11T21:08:46.005Z,8.10
2022-10-11T21:11:12.511Z,8.10
2022-10-11T21:13:38.951Z,8.10
2022-10-11T21:16:07.809Z,8.10
2022-10-11T21:18:34.258Z,8.10
2022-10-11T21:21:04.819Z,8.10
2022-10-11T21:23:31.397Z,8.10
2022-10-11T21:26:18.299Z,8.00
2022-10-11T21:28:46.069Z,8.00
2022-10-11T21:31:14.029Z,8.00
2022-10-11T21:33:41.438Z,8.10
2022-10-11T21:36:12.231Z,8.00
2022-10-11T21:38:38.972Z,8.00
2022-10-11T21:41:06.220Z,7.90
2022-10-11T21:43:33.240Z,7.90
2022-10-11T21:45:59.660Z,7.80
2022-10-11T21:48:26.138Z,7.80
2022-10-11T21:50:53.547Z,7.70
2022-10-11T21:53:20.167Z,7.70
2022-10-11T21:55:47.131Z,7.70
2022-10-11T21:58:13.697Z,7.60
2022-10-11T22:00:40.114Z,7.60
2022-10-11T22:03:06.535Z,7.60
2022-10-11T22:05:33.089Z,7.60
2022-10-11T22:07:59.547Z,7.60
2022-10-11T22:10:26.092Z,7.60
2022-10-11T22:12:52.507Z,7.60
2022-10-11T22:15:18.971Z,7.60
2022-10-11T22:17:45.458Z,7.60
2022-10-11T22:20:11.885Z,7.60
2022-10-11T22:22:38.460Z,7.60
2022-10-11T22:25:05.213Z,7.50
2022-10-11T22:27:31.637Z,7.50
2022-10-11T22:29:58.116Z,7.50
2022-10-11T22:32:24.556Z,7.40
2022-10-11T22:34:50.969Z,7.40
2022-10-11T22:37:17.452Z,7.40
2022-10-11T22:39:44.009Z,7.30
2022-10-11T22:42:10.431Z,7.30
2022-10-11T22:44:36.881Z,7.30
2022-10-11T22:47:03.337Z,7.20
2022-10-11T22:49:29.745Z,7.20
2022-10-11T22:51:56.211Z,7.10
2022-10-11T22:54:22.661Z,7.10
2022-10-11T22:56:49.131Z,7.10
2022-10-11T22:59:15.603Z,7.10
2022-10-11T23:01:42.090Z,7.10
2022-10-11T23:04:08.601Z,7.10
2022-10-11T23:06:35.129Z,7.10
2022-10-11T23:09:02.158Z,7.10
2022-10-11T23:11:28.593Z,7.10
2022-10-11T23:13:55.024Z,7.10
2022-10-11T23:16:21.538Z,7.10
2022-10-11T23:18:47.967Z,7.00
2022-10-11T23:21:14.411Z,7.00
2022-10-11T23:23:40.933Z,7.00
2022-10-11T23:26:08.766Z,7.00
2022-10-11T23:28:35.375Z,7.00
2022-10-11T23:31:06.061Z,6.90
2022-10-11T23:33:32.550Z,6.90
2022-10-11T23:35:58.968Z,6.90
2022-10-11T23:38:25.430Z,6.90
2022-10-11T23:40:51.874Z,6.90
2022-10-11T23:43:18.442Z,6.90
2022-10-11T23:45:45.071Z,6.80
2022-10-11T23:48:11.571Z,6.80
2022-10-11T23:50:37.999Z,6.70
2022-10-11T23:53:04.450Z,6.70
2022-10-11T23:55:30.905Z,6.70
2022-10-11T23:57:57.344Z,6.70
